createdAt,value
2018-09-11T00:01:30.774Z,11.37
2018-09-11T00:03:59.012Z,13.03
2018-09-11T00:06:27.235Z,9.37
2018-09-11T00:08:55.486Z,12.50
2018-09-11T00:11:23.715Z,9.87
2018-09-11T00:13:52.066Z,9.23
2018-09-11T00:16:20.339Z,11.30
2018-09-11T00:18:48.581Z,9.63
2018-09-11T00:21:16.853Z,11.87
2018-09-11T00:23:45.114Z,10.33
2018-09-11T00:26:13.345Z,9.37
2018-09-11T00:28:41.597Z,6.93
2018-09-11T00:31:09.834Z,8.07
2018-09-11T00:33:38.055Z,10.70
2018-09-11T00:36:06.291Z,8.33
2018-09-11T00:38:34.528Z,7.63
2018-09-11T00:41:02.763Z,12.43
2018-09-11T00:43:30.995Z,10.93
2018-09-11T00:45:59.206Z,8.63
2018-09-11T00:48:27.437Z,9.20
2018-09-11T00:50:55.696Z,7.20
2018-09-11T00:53:23.910Z,12.03
2018-09-11T00:55:52.126Z,9.23
2018-09-11T00:58:20.346Z,12.67
2018-09-11T01:00:48.606Z,12.47
2018-09-11T01:03:16.884Z,12.33
2018-09-11T01:05:45.139Z,12.53
2018-09-11T01:08:13.391Z,13.70
2018-09-11T01:10:41.622Z,12.13
2018-09-11T01:13:09.841Z,15.40
2018-09-11T01:15:38.119Z,16.47
2018-09-11T01:18:06.398Z,11.30
2018-09-11T01:20:34.636Z,10.20
2018-09-11T01:23:02.896Z,10.53
2018-09-11T01:25:31.155Z,10.87
2018-09-11T01:27:59.426Z,10.03
2018-09-11T01:30:27.637Z,11.13
2018-09-11T01:32:55.893Z,9.30
2018-09-11T01:35:24.101Z,12.53
2018-09-11T01:37:52.334Z,9.73
2018-09-11T01:40:20.562Z,10.03
2018-09-11T01:42:48.826Z,13.00
2018-09-11T01:45:17.050Z,8.97
2018-09-11T01:47:45.269Z,8.93
2018-09-11T01:50:13.518Z,10.30
2018-09-11T01:52:41.734Z,8.17
2018-09-11T01:55:09.984Z,10.93
2018-09-11T01:57:38.210Z,13.30
2018-09-11T02:00:11.029Z,9.43
2018-09-11T02:02:39.247Z,9.83
2018-09-11T02:05:07.499Z,13.13
2018-09-11T02:07:35.745Z,9.17
2018-09-11T02:10:04.014Z,12.07
2018-09-11T02:12:32.230Z,9.63
2018-09-11T02:15:00.474Z,10.10
2018-09-11T02:17:28.717Z,12.13
2018-09-11T02:19:56.958Z,8.80
2018-09-11T02:22:25.165Z,10.10
2018-09-11T02:24:53.411Z,9.60
2018-09-11T02:27:21.637Z,11.07
2018-09-11T02:29:49.881Z,11.67
2018-09-11T02:32:18.120Z,8.43
2018-09-11T02:34:46.347Z,9.77
2018-09-11T02:37:14.576Z,10.17
2018-09-11T02:39:42.827Z,13.13
2018-09-11T02:42:11.061Z,12.77
2018-09-11T02:44:39.294Z,12.10
2018-09-11T02:47:07.562Z,9.07
2018-09-11T02:49:35.790Z,8.97
2018-09-11T02:52:04.039Z,10.13
2018-09-11T02:54:32.262Z,8.93
2018-09-11T02:57:00.475Z,12.47
2018-09-11T02:59:28.702Z,10.83
2018-09-11T03:01:56.923Z,11.57
2018-09-11T03:04:25.247Z,11.13
2018-09-11T03:06:53.544Z,12.53
2018-09-11T03:09:21.770Z,10.90
2018-09-11T03:11:49.989Z,10.23
2018-09-11T03:14:18.237Z,11.60
2018-09-11T03:16:46.484Z,13.27
2018-09-11T03:19:14.709Z,8.67
2018-09-11T03:21:42.930Z,10.47
2018-09-11T03:24:11.162Z,11.03
2018-09-11T03:26:39.487Z,11.70
2018-09-11T03:29:07.722Z,9.63
2018-09-11T03:31:35.934Z,11.30
2018-09-11T03:34:04.199Z,9.63
2018-09-11T03:36:32.419Z,10.37
2018-09-11T03:39:00.666Z,12.20
2018-09-11T03:41:28.905Z,9.87
2018-09-11T03:43:57.147Z,13.37
2018-09-11T03:46:25.374Z,10.83
2018-09-11T03:48:53.645Z,12.23
2018-09-11T03:51:21.861Z,11.13
2018-09-11T03:53:50.090Z,10.17
2018-09-11T03:56:18.320Z,13.77
2018-09-11T03:58:46.568Z,13.20
2018-09-11T04:01:14.793Z,9.60
2018-09-11T04:03:43.002Z,9.83
2018-09-11T04:06:11.244Z,11.43
2018-09-11T04:08:39.485Z,12.57
2018-09-11T04:11:07.713Z,11.07
2018-09-11T04:13:35.939Z,11.57
2018-09-11T04:16:04.193Z,11.30
2018-09-11T04:18:32.433Z,14.57
2018-09-11T04:21:00.654Z,10.13
2018-09-11T04:23:28.877Z,10.93
2018-09-11T04:25:57.114Z,12.00
2018-09-11T04:28:25.383Z,12.60
2018-09-11T04:30:53.631Z,15.50
2018-09-11T04:33:21.852Z,9.43
2018-09-11T04:35:50.070Z,13.87
2018-09-11T04:38:18.346Z,13.67
2018-09-11T04:40:46.598Z,12.83
2018-09-11T04:43:14.848Z,16.13
2018-09-11T04:45:43.077Z,10.03
2018-09-11T04:48:11.307Z,9.27
2018-09-11T04:50:39.535Z,9.30
2018-09-11T04:53:07.777Z,10.87
2018-09-11T04:55:36.086Z,11.07
2018-09-11T04:58:04.298Z,13.40
2018-09-11T05:00:32.532Z,9.53
2018-09-11T05:03:00.758Z,11.50
2018-09-11T05:05:29.003Z,12.30
2018-09-11T05:07:57.257Z,10.57
2018-09-11T05:10:25.486Z,8.40
2018-09-11T05:12:53.709Z,13.43
2018-09-11T05:15:21.926Z,14.73
2018-09-11T05:17:50.170Z,13.17
2018-09-11T05:20:18.402Z,16.23
2018-09-11T05:22:46.617Z,10.20
2018-09-11T05:25:14.838Z,12.30
2018-09-11T05:27:43.086Z,12.67
2018-09-11T05:30:11.337Z,11.30
2018-09-11T05:32:39.558Z,11.43
2018-09-11T05:35:07.827Z,11.27
2018-09-11T05:37:36.040Z,10.80
2018-09-11T05:40:04.318Z,12.33
2018-09-11T05:42:32.547Z,14.80
2018-09-11T05:45:00.992Z,13.87
2018-09-11T05:47:29.209Z,13.73
2018-09-11T05:49:57.475Z,13.60
2018-09-11T05:52:25.702Z,13.73
2018-09-11T05:54:53.961Z,13.20
2018-09-11T05:57:22.186Z,14.83
2018-09-11T05:59:50.429Z,13.30
2018-09-11T06:02:18.681Z,14.60
2018-09-11T06:04:46.927Z,11.37
2018-09-11T06:07:15.159Z,14.17
2018-09-11T06:09:43.408Z,12.23
2018-09-11T06:12:11.633Z,13.33
2018-09-11T06:14:40.059Z,13.67
2018-09-11T06:17:08.306Z,12.03
2018-09-11T06:19:36.529Z,11.37
2018-09-11T06:22:04.770Z,15.77
2018-09-11T06:24:33.000Z,13.37
2018-09-11T06:27:01.235Z,12.40
2018-09-11T06:29:29.471Z,14.30
2018-09-11T06:31:57.768Z,12.33
2018-09-11T06:34:25.986Z,13.77
2018-09-11T06:36:54.230Z,15.90
2018-09-11T06:39:22.446Z,14.13
2018-09-11T06:41:50.686Z,13.23
2018-09-11T06:44:18.923Z,13.50
2018-09-11T06:46:48.208Z,13.10
2018-09-11T06:49:16.526Z,12.50
2018-09-11T06:51:44.801Z,13.00
2018-09-11T06:54:13.057Z,14.50
2018-09-11T06:56:41.462Z,14.33
2018-09-11T06:59:09.797Z,10.30
2018-09-11T07:01:37.939Z,11.67
2018-09-11T07:04:06.690Z,12.60
2018-09-11T07:06:34.901Z,13.03
2018-09-11T07:09:03.378Z,14.83
2018-09-11T07:11:31.598Z,14.07
2018-09-11T07:13:59.823Z,14.57
2018-09-11T07:16:28.029Z,11.33
2018-09-11T07:18:56.246Z,10.63
2018-09-11T07:21:24.465Z,12.80
2018-09-11T07:23:52.697Z,10.13
2018-09-11T07:26:20.979Z,13.30
2018-09-11T07:28:49.299Z,11.47
2018-09-11T07:31:17.588Z,5.57
2018-09-11T07:33:45.764Z,5.60
2018-09-11T07:36:14.335Z,11.13
2018-09-11T07:38:42.542Z,6.87
2018-09-11T07:41:11.285Z,5.93
2018-09-11T07:43:39.589Z,9.90
2018-09-11T07:46:07.834Z,8.40
2018-09-11T07:48:36.246Z,7.90
2018-09-11T07:51:04.513Z,5.37
2018-09-11T07:53:32.747Z,6.83
2018-09-11T07:56:00.997Z,7.90
2018-09-11T07:58:29.215Z,5.93
2018-09-11T08:00:57.441Z,10.23
2018-09-11T08:03:25.668Z,9.07
2018-09-11T08:05:53.929Z,7.83
2018-09-11T08:08:22.159Z,8.77
2018-09-11T08:10:50.422Z,9.43
2018-09-11T08:13:18.613Z,5.03
2018-09-11T08:15:46.869Z,5.90
2018-09-11T08:18:15.082Z,5.47
2018-09-11T08:20:43.310Z,4.33
2018-09-11T08:23:11.548Z,7.63
2018-09-11T08:25:39.767Z,8.77
2018-09-11T08:28:07.998Z,2.93
2018-09-11T08:30:36.224Z,5.20
2018-09-11T08:33:04.460Z,4.23
2018-09-11T08:35:32.742Z,6.80
2018-09-11T08:38:01.128Z,3.33
2018-09-11T08:40:29.358Z,4.73
2018-09-11T08:42:57.591Z,3.67
2018-09-11T08:45:25.837Z,2.20
2018-09-11T08:47:54.051Z,4.50
2018-09-11T08:50:22.281Z,2.93
2018-09-11T08:52:50.565Z,2.20
2018-09-11T08:55:18.722Z,6.07
2018-09-11T08:57:46.942Z,3.00
2018-09-11T09:00:15.174Z,2.50
2018-09-11T09:02:43.405Z,4.00
2018-09-11T09:05:11.634Z,5.77
2018-09-11T09:07:39.858Z,3.73
2018-09-11T09:10:08.170Z,4.23
2018-09-11T09:12:36.374Z,4.87
2018-09-11T09:15:04.666Z,4.90
2018-09-11T09:17:32.883Z,4.40
2018-09-11T09:20:01.163Z,4.20
2018-09-11T09:22:29.382Z,4.33
2018-09-11T09:24:57.607Z,4.33
2018-09-11T09:27:25.869Z,4.23
2018-09-11T09:29:54.063Z,9.83
2018-09-11T09:32:22.291Z,11.07
2018-09-11T09:34:50.538Z,6.50
2018-09-11T09:37:18.802Z,4.47
2018-09-11T09:39:47.026Z,8.43
2018-09-11T09:42:15.271Z,4.43
2018-09-11T09:44:43.498Z,2.43
2018-09-11T09:47:11.730Z,3.27
2018-09-11T09:49:39.941Z,5.33
2018-09-11T09:52:08.174Z,3.80
2018-09-11T09:54:36.433Z,2.43
2018-09-11T09:57:04.674Z,6.33
2018-09-11T09:59:32.930Z,4.53
2018-09-11T10:02:03.866Z,5.30
2018-09-11T10:04:32.455Z,6.57
2018-09-11T10:07:00.754Z,7.10
2018-09-11T10:09:28.989Z,3.63
2018-09-11T10:11:57.223Z,5.60
2018-09-11T10:14:25.447Z,3.87
2018-09-11T10:16:53.672Z,3.53
2018-09-11T10:19:21.894Z,2.40
2018-09-11T10:21:50.330Z,2.50
2018-09-11T10:24:18.555Z,10.93
2018-09-11T10:26:46.779Z,4.60
2018-09-11T10:29:14.995Z,4.17
2018-09-11T10:31:43.230Z,4.03
2018-09-11T10:34:11.571Z,2.80
2018-09-11T10:36:39.799Z,2.37
2018-09-11T10:39:08.606Z,4.73
2018-09-11T10:41:36.892Z,4.10
2018-09-11T10:44:05.130Z,3.30
2018-09-11T10:46:33.539Z,3.17
2018-09-11T10:49:01.759Z,3.40
2018-09-11T10:51:30.039Z,4.10
2018-09-11T10:53:58.270Z,4.13
2018-09-11T10:56:26.529Z,8.57
2018-09-11T10:58:54.744Z,3.67
2018-09-11T11:01:23.136Z,5.13
2018-09-11T11:03:51.394Z,7.47
2018-09-11T11:06:19.657Z,2.40
2018-09-11T11:08:47.842Z,3.77
2018-09-11T11:11:16.094Z,2.83
2018-09-11T11:13:44.322Z,2.87
2018-09-11T11:16:12.542Z,4.00
2018-09-11T11:18:40.780Z,2.93
2018-09-11T11:21:09.019Z,4.03
2018-09-11T11:23:37.233Z,5.93
2018-09-11T11:26:05.482Z,3.03
2018-09-11T11:28:33.719Z,4.13
2018-09-11T11:31:01.960Z,6.10
2018-09-11T11:33:30.170Z,3.03
2018-09-11T11:35:58.443Z,4.63
2018-09-11T11:38:26.646Z,3.63
2018-09-11T11:40:54.870Z,3.50
2018-09-11T11:43:23.104Z,2.80
2018-09-11T11:45:51.815Z,4.27
2018-09-11T11:48:20.116Z,4.10
2018-09-11T11:50:48.320Z,4.23
2018-09-11T11:53:16.537Z,5.60
2018-09-11T11:55:44.777Z,3.00
2018-09-11T11:58:12.986Z,3.17
2018-09-11T12:00:41.258Z,7.00
2018-09-11T12:03:09.491Z,4.37
2018-09-11T12:05:37.736Z,5.07
2018-09-11T12:08:05.998Z,3.73
2018-09-11T12:10:34.256Z,4.87
2018-09-11T12:13:02.514Z,4.07
2018-09-11T12:15:30.766Z,2.30
2018-09-11T12:17:58.997Z,5.87
2018-09-11T12:20:27.225Z,3.73
2018-09-11T12:22:55.462Z,6.03
2018-09-11T12:25:23.690Z,2.97
2018-09-11T12:27:51.923Z,3.73
2018-09-11T12:30:20.300Z,5.43
2018-09-11T12:32:48.514Z,3.57
2018-09-11T12:35:16.740Z,3.27
2018-09-11T12:37:44.954Z,7.17
2018-09-11T12:40:13.201Z,2.70
2018-09-11T12:42:41.485Z,3.03
2018-09-11T12:45:09.721Z,4.13
2018-09-11T12:47:38.123Z,4.57
2018-09-11T12:50:06.167Z,5.20
2018-09-11T12:52:34.395Z,2.97
2018-09-11T12:55:02.630Z,6.27
2018-09-11T12:57:30.891Z,3.17
2018-09-11T12:59:59.133Z,3.37
2018-09-11T13:02:27.465Z,2.50
2018-09-11T13:04:55.590Z,4.90
2018-09-11T13:07:23.830Z,4.40
2018-09-11T13:09:52.056Z,3.60
2018-09-11T13:12:20.289Z,2.50
2018-09-11T13:14:48.502Z,4.50
2018-09-11T13:17:16.747Z,5.83
2018-09-11T13:19:44.978Z,3.87
2018-09-11T13:22:13.209Z,3.90
2018-09-11T13:24:41.458Z,2.97
2018-09-11T13:27:09.739Z,5.17
2018-09-11T13:29:37.969Z,3.53
2018-09-11T13:32:06.254Z,2.27
2018-09-11T13:34:34.486Z,3.33
2018-09-11T13:37:02.705Z,4.50
2018-09-11T13:39:30.925Z,4.67
2018-09-11T13:41:59.214Z,3.20
2018-09-11T13:44:27.426Z,3.07
2018-09-11T13:46:55.689Z,5.47
2018-09-11T13:49:23.875Z,3.63
2018-09-11T13:51:52.114Z,3.97
2018-09-11T13:54:20.354Z,3.63
2018-09-11T13:56:48.607Z,3.87
2018-09-11T13:59:16.868Z,3.70
2018-09-11T14:01:45.090Z,3.27
2018-09-11T14:04:13.350Z,3.30
2018-09-11T14:06:41.578Z,3.40
2018-09-11T14:09:13.267Z,3.20
2018-09-11T14:11:41.879Z,4.53
2018-09-11T14:14:10.334Z,3.03
2018-09-11T14:16:38.561Z,5.20
2018-09-11T14:19:07.043Z,2.77
2018-09-11T14:21:35.319Z,3.33
2018-09-11T14:24:03.554Z,3.70
2018-09-11T14:26:32.122Z,4.47
2018-09-11T14:29:00.430Z,5.67
2018-09-11T14:31:28.669Z,4.23
2018-09-11T14:33:57.003Z,3.30
2018-09-11T14:36:25.243Z,3.13
2018-09-11T14:38:53.462Z,4.20
2018-09-11T14:41:21.686Z,4.13
2018-09-11T14:43:49.935Z,3.47
2018-09-11T14:46:18.158Z,3.07
2018-09-11T14:48:46.445Z,3.80
2018-09-11T14:51:14.670Z,3.30
2018-09-11T14:53:42.939Z,4.93
2018-09-11T14:56:11.151Z,4.53
2018-09-11T14:58:39.407Z,4.13
2018-09-11T15:01:07.655Z,5.73
2018-09-11T15:03:35.933Z,8.53
2018-09-11T15:06:04.162Z,5.00
2018-09-11T15:08:32.441Z,3.47
2018-09-11T15:11:00.653Z,8.63
2018-09-11T15:13:28.882Z,8.37
2018-09-11T15:15:57.118Z,4.57
2018-09-11T15:18:25.346Z,3.33
2018-09-11T15:20:53.575Z,6.73
2018-09-11T15:23:21.820Z,4.17
2018-09-11T15:25:50.063Z,3.47
2018-09-11T15:28:18.294Z,6.97
2018-09-11T15:30:46.579Z,6.23
2018-09-11T15:33:14.807Z,6.43
2018-09-11T15:35:43.034Z,4.07
2018-09-11T15:38:11.263Z,14.00
2018-09-11T15:40:39.536Z,3.23
2018-09-11T15:43:07.789Z,3.47
2018-09-11T15:45:36.014Z,7.23
2018-09-11T15:48:04.259Z,5.60
2018-09-11T15:50:32.470Z,5.90
2018-09-11T15:53:00.735Z,4.43
2018-09-11T15:55:28.959Z,6.37
2018-09-11T15:57:57.194Z,3.37
2018-09-11T16:00:25.521Z,4.50
2018-09-11T16:02:53.756Z,6.57
2018-09-11T16:05:21.962Z,6.33
2018-09-11T16:07:50.200Z,4.07
2018-09-11T16:10:18.430Z,4.33
2018-09-11T16:12:46.650Z,3.40
2018-09-11T16:15:14.867Z,4.70
2018-09-11T16:17:43.096Z,3.43
2018-09-11T16:20:11.320Z,3.90
2018-09-11T16:22:39.541Z,4.60
2018-09-11T16:25:07.785Z,4.57
2018-09-11T16:27:36.061Z,3.87
2018-09-11T16:30:04.496Z,4.30
2018-09-11T16:32:32.722Z,5.43
2018-09-11T16:35:00.934Z,3.53
2018-09-11T16:37:29.162Z,4.53
2018-09-11T16:39:57.428Z,5.80
2018-09-11T16:42:25.636Z,3.27
2018-09-11T16:44:53.846Z,3.63
2018-09-11T16:47:22.084Z,4.93
2018-09-11T16:49:50.299Z,3.83
2018-09-11T16:52:18.514Z,6.27
2018-09-11T16:54:47.806Z,5.13
2018-09-11T16:57:16.096Z,5.00
2018-09-11T16:59:44.358Z,4.57
2018-09-11T17:02:12.734Z,5.73
2018-09-11T17:04:40.842Z,4.03
2018-09-11T17:07:09.078Z,4.63
2018-09-11T17:09:37.298Z,3.83
2018-09-11T17:12:05.626Z,4.57
2018-09-11T17:14:33.901Z,4.47
2018-09-11T17:17:02.142Z,5.03
2018-09-11T17:19:30.383Z,6.67
2018-09-11T17:21:58.630Z,8.03
2018-09-11T17:24:26.870Z,7.43
2018-09-11T17:26:55.114Z,4.73
2018-09-11T17:29:23.350Z,3.80
2018-09-11T17:31:51.586Z,3.90
2018-09-11T17:34:19.797Z,4.50
2018-09-11T17:36:48.043Z,4.80
2018-09-11T17:39:16.382Z,5.80
2018-09-11T17:41:44.601Z,4.70
2018-09-11T17:44:12.898Z,7.40
2018-09-11T17:46:41.086Z,3.60
2018-09-11T17:49:09.383Z,5.40
2018-09-11T17:51:37.548Z,4.80
2018-09-11T17:54:05.880Z,4.83
2018-09-11T17:56:34.104Z,4.27
2018-09-11T17:59:02.403Z,7.70
2018-09-11T18:01:30.644Z,7.30
2018-09-11T18:03:59.275Z,5.93
2018-09-11T18:06:27.571Z,4.03
2018-09-11T18:08:56.119Z,8.43
2018-09-11T18:11:24.346Z,6.13
2018-09-11T18:13:52.649Z,5.30
2018-09-11T18:16:20.869Z,3.63
2018-09-11T18:18:49.105Z,5.40
2018-09-11T18:21:17.342Z,5.90
2018-09-11T18:23:45.609Z,9.93
2018-09-11T18:26:13.880Z,5.03
2018-09-11T18:28:42.959Z,5.77
2018-09-11T18:31:11.223Z,7.10
2018-09-11T18:33:39.574Z,5.40
2018-09-11T18:36:08.227Z,6.57
2018-09-11T18:38:36.474Z,4.93
2018-09-11T18:41:04.684Z,7.07
2018-09-11T18:43:32.911Z,4.83
2018-09-11T18:46:01.137Z,5.67
2018-09-11T18:48:29.383Z,3.63
2018-09-11T18:50:57.619Z,5.77
2018-09-11T18:53:25.922Z,4.97
2018-09-11T18:55:54.178Z,6.80
2018-09-11T18:58:22.465Z,6.87
2018-09-11T19:00:50.715Z,7.13
2018-09-11T19:03:18.951Z,4.93
2018-09-11T19:05:47.166Z,8.73
2018-09-11T19:08:15.421Z,5.47
2018-09-11T19:10:43.649Z,6.53
2018-09-11T19:13:11.906Z,7.27
2018-09-11T19:15:40.154Z,8.37
2018-09-11T19:18:08.382Z,8.67
2018-09-11T19:20:36.624Z,6.47
2018-09-11T19:23:04.842Z,8.33
2018-09-11T19:25:33.114Z,10.40
2018-09-11T19:28:03.067Z,7.73
2018-09-11T19:30:31.297Z,10.87
2018-09-11T19:32:59.558Z,7.43
2018-09-11T19:35:27.798Z,8.97
2018-09-11T19:37:56.058Z,9.17
2018-09-11T19:40:24.274Z,6.20
2018-09-11T19:42:52.582Z,7.40
2018-09-11T19:45:20.795Z,6.27
2018-09-11T19:47:50.171Z,7.77
2018-09-11T19:50:18.445Z,5.80
2018-09-11T19:52:46.634Z,6.97
2018-09-11T19:55:14.871Z,5.90
2018-09-11T19:57:43.123Z,11.50
2018-09-11T20:00:11.396Z,7.90
2018-09-11T20:02:39.614Z,9.63
2018-09-11T20:05:07.851Z,8.07
2018-09-11T20:07:36.066Z,8.97
2018-09-11T20:10:04.366Z,6.70
2018-09-11T20:12:32.595Z,7.37
2018-09-11T20:15:01.682Z,5.57
2018-09-11T20:17:29.915Z,7.97
2018-09-11T20:19:58.160Z,6.10
2018-09-11T20:22:26.378Z,9.00
2018-09-11T20:24:54.595Z,5.17
2018-09-11T20:27:22.842Z,7.87
2018-09-11T20:29:51.067Z,7.77
2018-09-11T20:32:19.321Z,8.40
2018-09-11T20:34:47.566Z,8.00
2018-09-11T20:37:15.825Z,6.87
2018-09-11T20:39:44.025Z,5.33
2018-09-11T20:42:12.242Z,8.73
2018-09-11T20:44:40.527Z,7.97
2018-09-11T20:47:08.825Z,9.00
2018-09-11T20:49:37.067Z,7.67
2018-09-11T20:52:05.302Z,8.93
2018-09-11T20:54:33.535Z,11.43
2018-09-11T20:57:01.754Z,6.83
2018-09-11T20:59:29.989Z,8.67
2018-09-11T21:01:58.274Z,9.00
2018-09-11T21:04:26.510Z,6.67
2018-09-11T21:06:54.738Z,7.40
2018-09-11T21:09:22.970Z,6.40
2018-09-11T21:11:51.187Z,8.40
2018-09-11T21:14:19.423Z,9.17
2018-09-11T21:16:47.635Z,8.63
2018-09-11T21:19:15.858Z,8.80
2018-09-11T21:21:44.089Z,10.00
2018-09-11T21:24:12.331Z,8.50
2018-09-11T21:26:40.556Z,7.87
2018-09-11T21:29:08.778Z,7.97
2018-09-11T21:31:37.018Z,11.73
2018-09-11T21:34:05.241Z,15.60
2018-09-11T21:36:33.470Z,11.13
2018-09-11T21:39:01.702Z,8.43
2018-09-11T21:41:30.033Z,6.53
2018-09-11T21:43:58.256Z,4.67
2018-09-11T21:46:26.484Z,5.30
2018-09-11T21:48:54.694Z,8.30
2018-09-11T21:51:22.947Z,5.90
2018-09-11T21:53:51.166Z,9.50
2018-09-11T21:56:19.373Z,8.80
2018-09-11T21:58:47.622Z,7.07
2018-09-11T22:01:21.143Z,6.07
2018-09-11T22:03:49.372Z,9.50
2018-09-11T22:06:17.579Z,10.03
2018-09-11T22:08:45.806Z,7.30
2018-09-11T22:11:14.031Z,9.17
2018-09-11T22:13:42.254Z,9.37
2018-09-11T22:16:10.498Z,14.60
2018-09-11T22:18:38.718Z,9.00
2018-09-11T22:21:06.974Z,8.23
2018-09-11T22:23:35.198Z,7.60
2018-09-11T22:26:03.405Z,9.23
2018-09-11T22:28:31.633Z,8.10
2018-09-11T22:30:59.873Z,8.10
2018-09-11T22:33:28.097Z,7.87
2018-09-11T22:35:56.317Z,10.73
2018-09-11T22:38:24.558Z,7.50
2018-09-11T22:40:52.773Z,7.10
2018-09-11T22:43:20.995Z,10.67
2018-09-11T22:45:49.239Z,8.03
2018-09-11T22:48:17.499Z,7.03
2018-09-11T22:50:45.744Z,6.40
2018-09-11T22:53:13.965Z,5.67
2018-09-11T22:55:42.207Z,8.87
2018-09-11T22:58:10.416Z,6.60
2018-09-11T23:00:38.671Z,7.73
2018-09-11T23:03:07.035Z,7.63
2018-09-11T23:05:35.275Z,7.27
2018-09-11T23:08:03.482Z,9.40
2018-09-11T23:10:31.714Z,7.80
2018-09-11T23:12:59.937Z,9.47
2018-09-11T23:15:28.154Z,9.67
2018-09-11T23:17:56.380Z,9.10
2018-09-11T23:20:24.602Z,8.60
2018-09-11T23:22:52.831Z,7.27
2018-09-11T23:25:21.072Z,8.10
2018-09-11T23:27:49.313Z,8.40
2018-09-11T23:30:17.535Z,6.77
2018-09-11T23:32:45.762Z,6.17
2018-09-11T23:35:13.989Z,8.60
2018-09-11T23:37:42.217Z,8.20
2018-09-11T23:40:10.483Z,7.87
2018-09-11T23:42:38.720Z,9.17
2018-09-11T23:45:06.959Z,5.97
2018-09-11T23:47:35.171Z,6.57
2018-09-11T23:50:03.458Z,7.80
2018-09-11T23:52:31.687Z,9.87
2018-09-11T23:54:59.922Z,6.30
2018-09-11T23:57:28.138Z,8.97
2018-09-11T23:59:56.375Z,8.27
